createdAt,value
2019-01-16T00:13:23.546Z,70.52
2019-01-16T00:16:10.850Z,70.53
2019-01-16T00:19:00.484Z,70.50
2019-01-16T00:21:57.674Z,70.50
2019-01-16T00:24:56.413Z,70.66
2019-01-16T00:27:43.354Z,70.69
2019-01-16T00:30:34.996Z,70.50
2019-01-16T00:43:44.328Z,70.52
2019-01-16T00:58:20.054Z,70.95
2019-01-16T13:08:27.433Z,60.67
2019-01-16T13:22:47.078Z,60.68
2019-01-16T13:40:21.425Z,62.61
2019-01-16T13:58:04.313Z,64.12
2019-01-16T14:01:23.463Z,64.52
2019-01-16T14:25:41.944Z,64.22
2019-01-16T14:28:28.615Z,64.58
2019-01-16T14:31:13.409Z,64.60
2019-01-16T14:34:07.586Z,64.09
2019-01-16T14:37:04.537Z,64.45
2019-01-16T14:40:10.640Z,64.63
2019-01-16T14:43:17.211Z,64.63
2019-01-16T14:46:03.800Z,64.62
2019-01-16T14:48:54.613Z,64.35
2019-01-16T14:51:42.014Z,64.62
2019-01-16T14:54:23.205Z,64.69
2019-01-16T14:57:10.106Z,64.58
2019-01-16T14:59:56.952Z,64.48
2019-01-16T15:02:55.433Z,64.69
2019-01-16T15:05:41.986Z,64.50
2019-01-16T15:08:42.669Z,64.78
2019-01-16T15:11:36.633Z,64.63
2019-01-16T15:14:42.948Z,64.54
2019-01-16T15:17:29.437Z,64.72
2019-01-16T15:20:15.948Z,64.40
2019-01-16T15:23:14.429Z,63.49
2019-01-16T15:26:08.508Z,63.65
2019-01-16T15:29:06.467Z,63.38
2019-01-16T15:32:04.298Z,63.20
2019-01-16T15:34:44.504Z,63.11
2019-01-16T15:37:38.674Z,62.79
2019-01-16T15:40:38.726Z,62.71
2019-01-16T15:43:32.976Z,62.76
2019-01-16T15:46:24.145Z,63.26
2019-01-16T15:49:16.968Z,63.08
2019-01-16T15:52:17.271Z,63.34
2019-01-16T15:55:03.441Z,63.51
2019-01-16T15:58:03.800Z,63.96
2019-01-16T16:01:10.166Z,64.12
2019-01-16T16:04:16.350Z,64.08
2019-01-16T16:07:05.350Z,64.34
2019-01-16T16:09:56.754Z,64.17
2019-01-16T16:12:36.238Z,64.06
2019-01-16T16:15:24.201Z,63.93
2019-01-16T16:21:11.487Z,63.65
2019-01-16T16:24:05.395Z,63.95
2019-01-16T16:26:52.501Z,63.83
2019-01-16T16:29:39.189Z,64.29
2019-01-16T16:32:43.063Z,64.61
2019-01-16T16:35:29.428Z,64.80
2019-01-16T16:38:13.563Z,65.04
2019-01-16T16:41:00.474Z,65.67
2019-01-16T16:43:36.969Z,65.68
2019-01-16T16:46:21.805Z,65.80
2019-01-16T16:49:16.531Z,65.74
2019-01-16T16:52:10.071Z,65.77
2019-01-16T16:54:56.366Z,65.97
2019-01-16T16:57:44.532Z,65.80
2019-01-16T17:00:45.615Z,65.68
2019-01-16T17:03:29.539Z,65.90
2019-01-16T17:06:19.188Z,66.17
2019-01-16T17:09:12.759Z,66.30
2019-01-16T17:12:14.105Z,66.41
2019-01-16T17:14:52.003Z,66.52
2019-01-16T17:17:59.039Z,66.96
2019-01-16T17:20:49.099Z,67.15
2019-01-16T17:23:40.552Z,67.01
2019-01-16T17:26:38.520Z,67.28
2019-01-16T17:29:23.935Z,67.30
2019-01-16T17:32:11.120Z,67.15
2019-01-16T17:38:03.340Z,67.35
2019-01-16T17:40:55.316Z,67.65
2019-01-16T17:43:45.986Z,67.24
2019-01-16T17:46:34.380Z,67.63
2019-01-16T17:49:21.742Z,67.74
2019-01-16T17:52:10.219Z,67.83
2019-01-16T17:55:13.027Z,67.99
2019-01-16T17:58:00.249Z,68.23
2019-01-16T18:01:06.925Z,68.20
2019-01-16T18:04:10.401Z,67.83
2019-01-16T18:07:17.308Z,68.19
2019-01-16T18:10:04.227Z,68.31
2019-01-16T18:13:00.719Z,68.43
2019-01-16T18:15:43.196Z,68.51
2019-01-16T18:18:30.705Z,68.52
2019-01-16T18:21:23.967Z,68.46
2019-01-16T18:24:16.968Z,68.72
2019-01-16T18:27:17.970Z,68.97
2019-01-16T18:30:05.116Z,69.16
2019-01-16T18:33:00.462Z,69.00
2019-01-16T18:35:47.879Z,69.04
2019-01-16T18:38:39.393Z,68.66
2019-01-16T18:41:40.623Z,68.51
2019-01-16T18:44:41.323Z,68.26
2019-01-16T18:47:31.846Z,68.02
2019-01-16T18:50:19.308Z,67.98
2019-01-16T18:53:06.945Z,68.02
2019-01-16T18:55:58.130Z,68.08
2019-01-16T18:58:44.971Z,68.14
2019-01-16T19:01:36.309Z,67.86
2019-01-16T19:04:24.787Z,67.55
2019-01-16T19:07:26.359Z,67.71
2019-01-16T19:10:37.123Z,67.63
2019-01-16T19:13:28.182Z,67.44
2019-01-16T19:16:34.462Z,68.12
2019-01-16T19:19:21.405Z,68.25
2019-01-16T19:22:04.968Z,67.89
2019-01-16T19:24:56.755Z,67.89
2019-01-16T19:27:45.999Z,67.68
2019-01-16T19:30:32.269Z,67.80
2019-01-16T19:33:23.890Z,67.41
2019-01-16T19:36:27.255Z,67.48
2019-01-16T19:39:14.127Z,67.39
2019-01-16T19:42:14.603Z,67.57
2019-01-16T19:45:00.994Z,67.81
2019-01-16T19:48:04.262Z,67.77
2019-01-16T19:50:52.898Z,68.15
2019-01-16T19:53:41.208Z,68.63
2019-01-16T19:56:28.644Z,68.63
2019-01-16T19:59:16.967Z,68.82
2019-01-16T20:02:03.780Z,68.95
2019-01-16T20:04:48.391Z,69.15
2019-01-16T20:07:30.139Z,69.18
2019-01-16T20:10:36.124Z,69.48
2019-01-16T20:13:27.000Z,69.53
2019-01-16T20:16:22.693Z,69.73
2019-01-16T20:19:02.214Z,69.48
2019-01-16T20:21:44.100Z,69.67
2019-01-16T20:24:31.807Z,69.57
2019-01-16T20:27:22.320Z,69.34
2019-01-16T20:30:09.565Z,69.33
2019-01-16T20:32:56.786Z,69.18
2019-01-16T20:35:57.690Z,69.18
2019-01-16T20:38:48.080Z,69.19
2019-01-16T20:41:47.551Z,69.12
2019-01-16T20:44:45.128Z,69.14
2019-01-16T20:47:36.075Z,69.44
2019-01-16T20:50:30.766Z,69.64
2019-01-16T20:53:17.458Z,69.66
2019-01-16T20:56:15.282Z,70.06
2019-01-16T20:58:56.158Z,70.20
2019-01-16T21:01:56.617Z,70.35
2019-01-16T21:04:58.478Z,70.45
2019-01-16T21:07:35.294Z,70.38
2019-01-16T21:10:25.499Z,70.28
2019-01-16T21:13:12.574Z,70.47
2019-01-16T21:16:16.353Z,70.48
2019-01-16T21:19:16.893Z,70.80
2019-01-16T21:22:05.769Z,70.93
2019-01-16T21:24:54.526Z,70.58
2019-01-16T21:27:42.124Z,69.95
2019-01-16T21:30:30.890Z,69.73
2019-01-16T21:33:18.266Z,69.79
2019-01-16T21:36:09.708Z,69.56
2019-01-16T21:38:58.683Z,69.01
2019-01-16T21:41:39.871Z,68.54
2019-01-16T21:44:24.670Z,68.15
2019-01-16T21:47:13.109Z,67.99
2019-01-16T21:49:58.218Z,67.94
2019-01-16T21:52:56.992Z,67.93
2019-01-16T21:55:56.951Z,67.82
2019-01-16T21:58:49.348Z,67.80
2019-01-16T22:01:35.048Z,67.70
2019-01-16T22:04:23.888Z,67.78
2019-01-16T22:07:12.458Z,67.83
2019-01-16T22:10:10.636Z,67.61
2019-01-16T22:12:55.883Z,67.64
2019-01-16T22:15:56.552Z,67.62
2019-01-16T22:18:43.727Z,67.68
2019-01-16T22:21:19.970Z,67.70
2019-01-16T22:24:04.228Z,67.60
2019-01-16T22:26:58.468Z,67.64
2019-01-16T22:29:45.273Z,67.61
2019-01-16T22:32:34.714Z,67.75
2019-01-16T22:35:23.546Z,67.59
2019-01-16T22:38:06.557Z,67.33
2019-01-16T22:40:53.821Z,67.11
2019-01-16T22:43:45.098Z,66.88
2019-01-16T22:46:28.708Z,66.47
2019-01-16T22:49:08.901Z,66.37
2019-01-16T22:51:48.456Z,66.20
2019-01-16T22:54:30.884Z,66.11
2019-01-16T22:57:25.261Z,65.92
2019-01-16T23:00:25.728Z,65.77
2019-01-16T23:03:14.070Z,65.23
2019-01-16T23:06:03.184Z,65.31
2019-01-16T23:08:51.333Z,65.16
2019-01-16T23:11:43.095Z,64.92
2019-01-16T23:14:49.029Z,64.86
2019-01-16T23:17:37.028Z,64.75
2019-01-16T23:20:29.414Z,64.19
2019-01-16T23:23:11.834Z,64.24
2019-01-16T23:26:03.271Z,63.99
2019-01-16T23:29:05.199Z,63.64
2019-01-16T23:31:40.282Z,63.52
2019-01-16T23:34:17.789Z,63.19
2019-01-16T23:37:04.773Z,63.08
2019-01-16T23:39:54.150Z,63.05
2019-01-16T23:42:42.546Z,62.62
2019-01-16T23:45:40.486Z,62.49
2019-01-16T23:48:24.914Z,62.57
2019-01-16T23:51:19.637Z,62.72
2019-01-16T23:54:06.844Z,62.60
2019-01-16T23:57:04.456Z,62.58
